Aérodrome :
LOGIN :

S'inscrire | Disclaimer

   EN    FR    IT 

 










Légende :    VFR   VFR Marginal   IFR   IFR Intensif   IFR Très Intensif
Visi : 
Plafond : 
>= 8 km
>= 3000ft
5 à 8 km
1000 à 3000 ft
1500m à 5 km
500 à 1000 ft
800 à 1500m
200 à 500 ft
< 800m
< 200 ft
Symboles :   Orages  Brouillard  Fortes neiges  Fortes précipitations  Vent > 20 kt
SIGMETs :   Divers  Orages  Givrage  Turbulence  Onde Orograph.  Cendres Volcan.







- Altitude de l'aérodrome : 375 ft
- Code IATA : MST


EHBK - Maastricht Aachen

DERNIER METAR :
  • 232255Z AUTO 25008KT 210V290 9999 SCT020 OVC030 20/16 Q1015

METARs EXPIRÉS :
  • 232225Z AUTO 25010KT 210V290 9999 SCT022 OVC030 21/16 Q1015
  • 232155Z AUTO 25009KT 210V300 9999 FEW019 BKN038 OVC042 21/17 Q1015
  • 232125Z AUTO 25008KT 200V290 9999 FEW023 OVC041 22/18 Q1014
  • 232055Z AUTO 25008KT 220V300 9999 BKN047 23/18 Q1014 NOSIG
  • 232025Z AUTO 24007KT 200V280 9999 NSC 24/18 Q1013 NOSIG

TAF TAF EHBK
Valide du 23 à 18h jusqu'au 25 à 00h UTC


231719Z 2318/2424 19007KT CAVOK
BECMG 2320/2323 26011KT
PROB30
TEMPO 2320/2324 6000 SHRA SCT015 SCT070CB
BECMG 2403/2406 23008KT
PROB30 2403/2406 BKN008
BECMG 2409/2412 27012KT
BECMG 2418/2421 35003KT
Pas de NOTAMs connus pour ce terrain.



MET'MAP, la Météo Aéronautique d'un coup d'oeil ! - Copyright ORBIFLY Décembre 2007 - Disclaimer

ORBIFLY MET'MAP TEAM :

Programmation & Développement : Alexandra Zaïnal
Conception & Développement : Baudouin d'Aumeries
Co-Programmation & Développement : Marc-Olivier Méhu
Soutien technique & logistique : Manuel Goepfert

Contact : metmap@orbifly.com




SOURCES & CREDITS :

   NOAA